createdAt,value
2018-04-08T00:01:54.587Z,13.70
2018-04-08T00:04:22.165Z,13.60
2018-04-08T00:06:49.734Z,13.50
2018-04-08T00:09:18.067Z,13.40
2018-04-08T00:11:45.614Z,13.40
2018-04-08T00:14:13.174Z,13.40
2018-04-08T00:16:40.768Z,13.50
2018-04-08T00:19:08.361Z,13.40
2018-04-08T00:21:35.947Z,13.30
2018-04-08T00:24:03.573Z,13.30
2018-04-08T00:26:31.150Z,13.30
2018-04-08T00:28:58.736Z,13.20
2018-04-08T00:31:26.334Z,13.20
2018-04-08T00:33:53.874Z,13.20
2018-04-08T00:36:21.436Z,13.10
2018-04-08T00:38:49.004Z,13.10
2018-04-08T00:41:16.557Z,13.10
2018-04-08T00:43:44.127Z,13.00
2018-04-08T00:46:11.674Z,13.00
2018-04-08T00:48:39.244Z,13.00
2018-04-08T00:51:06.782Z,13.10
2018-04-08T00:53:34.402Z,13.00
2018-04-08T00:56:01.984Z,13.00
2018-04-08T00:58:29.534Z,13.10
2018-04-08T01:00:57.143Z,13.00
2018-04-08T01:03:24.682Z,12.90
2018-04-08T01:05:52.293Z,12.80
2018-04-08T01:08:19.869Z,12.80
2018-04-08T01:10:47.462Z,12.80
2018-04-08T01:13:15.031Z,12.80
2018-04-08T01:15:42.611Z,12.80
2018-04-08T01:18:10.165Z,12.80
2018-04-08T01:20:37.721Z,12.80
2018-04-08T01:23:05.264Z,12.80
2018-04-08T01:25:32.810Z,12.80
2018-04-08T01:28:00.382Z,12.70
2018-04-08T01:30:27.944Z,12.70
2018-04-08T01:32:55.499Z,12.70
2018-04-08T01:35:23.076Z,12.50
2018-04-08T01:37:50.633Z,12.50
2018-04-08T01:40:18.202Z,12.40
2018-04-08T01:42:45.741Z,12.50
2018-04-08T01:45:13.320Z,12.60
2018-04-08T01:47:40.985Z,12.60
2018-04-08T01:50:08.541Z,12.70
2018-04-08T01:52:36.125Z,12.70
2018-04-08T01:55:03.722Z,12.80
2018-04-08T01:57:31.274Z,12.70
2018-04-08T01:59:58.873Z,12.70
2018-04-08T02:02:26.592Z,12.70
2018-04-08T02:04:54.155Z,12.80
2018-04-08T02:07:21.703Z,12.70
2018-04-08T02:09:49.343Z,12.70
2018-04-08T02:12:17.058Z,12.70
2018-04-08T02:14:44.639Z,12.70
2018-04-08T02:17:12.168Z,12.60
2018-04-08T02:19:39.741Z,12.50
2018-04-08T02:22:07.298Z,12.50
2018-04-08T02:24:34.864Z,12.50
2018-04-08T02:27:02.440Z,12.50
2018-04-08T02:29:30.002Z,12.40
2018-04-08T02:31:57.601Z,12.30
2018-04-08T02:34:25.125Z,12.30
2018-04-08T02:36:52.665Z,12.20
2018-04-08T02:39:20.237Z,12.20
2018-04-08T02:41:47.802Z,12.20
2018-04-08T02:44:15.368Z,12.10
2018-04-08T02:46:42.922Z,12.10
2018-04-08T02:49:10.476Z,12.10
2018-04-08T02:51:38.042Z,12.10
2018-04-08T02:54:05.562Z,12.10
2018-04-08T02:56:33.085Z,12.00
2018-04-08T02:59:00.645Z,11.90
2018-04-08T03:01:28.179Z,12.00
2018-04-08T03:03:55.764Z,11.90
2018-04-08T03:06:23.300Z,11.80
2018-04-08T03:08:50.859Z,11.80
2018-04-08T03:11:18.376Z,11.80
2018-04-08T03:13:45.943Z,11.70
2018-04-08T03:16:13.524Z,11.70
2018-04-08T03:18:41.049Z,11.70
2018-04-08T03:21:08.627Z,11.70
2018-04-08T03:23:36.156Z,11.70
2018-04-08T03:26:04.483Z,11.70
2018-04-08T03:28:32.005Z,11.70
2018-04-08T03:30:59.601Z,11.60
2018-04-08T03:33:27.133Z,11.60
2018-04-08T03:35:54.717Z,11.60
2018-04-08T03:38:22.248Z,11.60
2018-04-08T03:40:49.807Z,11.50
2018-04-08T03:43:17.398Z,11.50
2018-04-08T03:45:44.956Z,11.60
2018-04-08T03:48:12.487Z,11.60
2018-04-08T03:50:40.068Z,11.50
2018-04-08T03:53:07.604Z,11.60
2018-04-08T03:55:35.215Z,11.60
2018-04-08T03:58:02.741Z,11.60
2018-04-08T04:00:30.337Z,11.60
2018-04-08T04:02:57.881Z,11.60
2018-04-08T04:05:25.438Z,11.60
2018-04-08T04:07:52.968Z,11.70
2018-04-08T04:10:20.528Z,11.60
2018-04-08T04:12:48.052Z,11.70
2018-04-08T04:15:15.638Z,11.70
2018-04-08T04:17:43.176Z,10.90
2018-04-08T04:20:22.613Z,11.70
2018-04-08T04:23:01.912Z,11.60
2018-04-08T04:28:34.291Z,11.50
2018-04-08T04:31:01.862Z,11.40
2018-04-08T04:33:29.411Z,11.30
2018-04-08T04:35:56.966Z,11.30
2018-04-08T04:38:24.525Z,11.20
2018-04-08T04:40:52.090Z,11.10
2018-04-08T04:43:19.650Z,11.10
2018-04-08T04:45:47.168Z,11.00
2018-04-08T04:48:14.680Z,11.10
2018-04-08T04:50:42.232Z,11.10
2018-04-08T04:53:09.783Z,11.10
2018-04-08T04:55:37.348Z,11.20
2018-04-08T04:58:04.866Z,11.20
2018-04-08T05:00:32.430Z,11.10
2018-04-08T05:03:00.756Z,11.00
2018-04-08T05:05:28.317Z,10.90
2018-04-08T05:07:55.946Z,11.00
2018-04-08T05:10:23.466Z,11.00
2018-04-08T05:12:51.032Z,11.00
2018-04-08T05:15:18.608Z,11.00
2018-04-08T05:17:46.232Z,11.00
2018-04-08T05:20:13.780Z,11.10
2018-04-08T05:22:41.364Z,11.10
2018-04-08T05:25:08.943Z,11.10
2018-04-08T05:27:36.652Z,11.10
2018-04-08T05:30:04.179Z,11.20
2018-04-08T05:32:31.727Z,11.20
2018-04-08T05:34:59.304Z,11.10
2018-04-08T05:37:26.866Z,11.20
2018-04-08T05:39:54.446Z,11.10
2018-04-08T05:42:22.026Z,11.20
2018-04-08T05:44:49.770Z,11.20
2018-04-08T05:47:17.335Z,11.20
2018-04-08T05:49:44.900Z,11.20
2018-04-08T05:52:12.454Z,11.20
2018-04-08T05:54:40.063Z,11.30
2018-04-08T05:57:07.606Z,11.30
2018-04-08T05:59:35.318Z,11.30
2018-04-08T06:02:02.872Z,11.40
2018-04-08T06:04:30.454Z,11.40
2018-04-08T06:06:57.977Z,11.50
2018-04-08T06:09:25.521Z,11.50
2018-04-08T06:11:53.880Z,11.60
2018-04-08T06:14:21.441Z,11.60
2018-04-08T06:16:49.023Z,11.80
2018-04-08T06:19:16.582Z,11.90
2018-04-08T06:21:44.928Z,12.10
2018-04-08T06:24:12.441Z,12.00
2018-04-08T06:26:40.001Z,12.20
2018-04-08T06:29:07.562Z,12.20
2018-04-08T06:31:35.145Z,12.40
2018-04-08T06:34:02.777Z,12.60
2018-04-08T06:36:30.324Z,12.60
2018-04-08T06:38:58.667Z,12.70
2018-04-08T06:41:26.218Z,12.70
2018-04-08T06:43:53.819Z,12.70
2018-04-08T06:46:21.343Z,12.80
2018-04-08T06:48:48.906Z,12.90
2018-04-08T06:51:16.437Z,13.10
2018-04-08T06:53:44.149Z,13.20
2018-04-08T06:56:11.676Z,13.30
2018-04-08T06:58:39.239Z,13.50
2018-04-08T07:01:07.024Z,13.60
2018-04-08T07:03:34.597Z,13.70
2018-04-08T07:06:02.127Z,13.80
2018-04-08T07:08:29.681Z,13.90
2018-04-08T07:10:57.241Z,14.00
2018-04-08T07:13:24.770Z,14.10
2018-04-08T07:15:52.293Z,14.10
2018-04-08T07:18:19.860Z,14.20
2018-04-08T07:20:48.199Z,14.30
2018-04-08T07:23:15.729Z,14.30
2018-04-08T07:25:43.322Z,14.30
2018-04-08T07:28:10.911Z,14.50
2018-04-08T07:30:39.260Z,14.70
2018-04-08T07:33:06.820Z,14.70
2018-04-08T07:35:35.045Z,14.90
2018-04-08T07:38:02.637Z,15.10
2018-04-08T07:40:30.196Z,15.40
2018-04-08T07:42:57.961Z,15.60
2018-04-08T07:45:25.498Z,15.80
2018-04-08T07:47:53.064Z,16.00
2018-04-08T07:50:21.151Z,16.20
2018-04-08T07:52:48.698Z,16.30
2018-04-08T07:55:16.256Z,16.50
2018-04-08T07:57:43.817Z,16.70
2018-04-08T08:00:11.470Z,16.80
2018-04-08T08:02:39.040Z,17.00
2018-04-08T08:05:06.655Z,17.00
2018-04-08T08:07:34.250Z,17.10
2018-04-08T08:10:01.838Z,17.20
2018-04-08T08:12:29.449Z,17.30
2018-04-08T08:14:57.748Z,17.50
2018-04-08T08:17:25.309Z,17.50
2018-04-08T08:19:52.842Z,17.50
2018-04-08T08:22:20.429Z,17.60
2018-04-08T08:24:48.024Z,17.60
2018-04-08T08:27:15.624Z,17.70
2018-04-08T08:29:43.207Z,17.80
2018-04-08T08:32:10.977Z,17.90
2018-04-08T08:34:38.557Z,17.90
2018-04-08T08:37:06.260Z,18.00
2018-04-08T08:39:33.835Z,18.00
2018-04-08T08:42:01.506Z,18.00
2018-04-08T08:44:29.053Z,18.00
2018-04-08T08:46:57.619Z,18.00
2018-04-08T08:49:25.182Z,18.00
2018-04-08T08:51:52.753Z,18.00
2018-04-08T08:54:20.438Z,18.00
2018-04-08T08:56:48.019Z,18.00
2018-04-08T08:59:15.674Z,18.10
2018-04-08T09:01:43.217Z,18.10
2018-04-08T09:04:12.177Z,18.10
2018-04-08T09:06:39.911Z,18.10
2018-04-08T09:09:07.494Z,18.10
2018-04-08T09:11:35.097Z,18.10
2018-04-08T09:14:02.999Z,18.10
2018-04-08T09:16:30.564Z,18.10
2018-04-08T09:19:09.586Z,18.10
2018-04-08T09:21:42.851Z,18.10
2018-04-08T09:24:11.186Z,18.20
2018-04-08T09:26:38.720Z,18.10
2018-04-08T09:29:06.297Z,18.20
2018-04-08T09:31:33.822Z,18.20
2018-04-08T09:34:01.445Z,18.20
2018-04-08T09:36:29.126Z,18.30
2018-04-08T09:38:56.877Z,18.30
2018-04-08T09:41:25.204Z,18.30
2018-04-08T09:43:53.391Z,18.30
2018-04-08T09:46:20.942Z,18.30
2018-04-08T09:48:48.528Z,18.40
2018-04-08T09:51:16.070Z,18.40
2018-04-08T09:53:43.658Z,18.40
2018-04-08T09:56:11.280Z,18.40
2018-04-08T09:58:39.037Z,18.40
2018-04-08T10:01:25.267Z,18.40
2018-04-08T10:03:52.918Z,18.40
2018-04-08T10:06:20.472Z,18.30
2018-04-08T10:08:48.035Z,18.30
2018-04-08T10:11:15.899Z,18.30
2018-04-08T10:13:43.478Z,18.30
2018-04-08T10:16:11.021Z,18.30
2018-04-08T10:18:38.580Z,18.30
2018-04-08T10:21:06.127Z,18.30
2018-04-08T10:23:33.748Z,18.30
2018-04-08T10:26:01.430Z,18.30
2018-04-08T10:28:29.400Z,18.30
2018-04-08T10:30:56.954Z,18.30
2018-04-08T10:33:25.272Z,18.20
2018-04-08T10:35:52.842Z,18.20
2018-04-08T10:38:20.455Z,18.20
2018-04-08T10:40:48.877Z,18.30
2018-04-08T10:43:16.479Z,18.30
2018-04-08T10:45:44.091Z,18.50
2018-04-08T10:48:11.647Z,18.60
2018-04-08T10:50:39.220Z,18.60
2018-04-08T10:53:06.786Z,18.60
2018-04-08T10:55:34.344Z,18.60
2018-04-08T10:58:01.904Z,18.70
2018-04-08T11:00:29.505Z,18.70
2018-04-08T11:02:57.132Z,18.70
2018-04-08T11:05:24.726Z,18.70
2018-04-08T11:07:52.296Z,18.70
2018-04-08T11:10:19.885Z,18.70
2018-04-08T11:12:47.524Z,18.70
2018-04-08T11:15:15.088Z,18.70
2018-04-08T11:17:42.753Z,18.80
2018-04-08T11:20:10.413Z,18.90
2018-04-08T11:22:37.975Z,18.90
2018-04-08T11:25:05.629Z,18.90
2018-04-08T11:27:33.192Z,18.90
2018-04-08T11:30:00.747Z,18.90
2018-04-08T11:32:28.301Z,18.90
2018-04-08T11:34:55.872Z,19.00
2018-04-08T11:37:23.444Z,19.00
2018-04-08T11:39:51.133Z,19.10
2018-04-08T11:42:18.693Z,19.10
2018-04-08T11:44:46.485Z,19.20
2018-04-08T11:47:14.060Z,19.10
2018-04-08T11:49:41.692Z,19.20
2018-04-08T11:52:09.255Z,19.20
2018-04-08T11:54:36.820Z,19.20
2018-04-08T11:57:05.627Z,19.30
2018-04-08T11:59:33.245Z,19.40
2018-04-08T12:02:00.873Z,19.50
2018-04-08T12:04:28.339Z,19.50
2018-04-08T12:06:55.919Z,19.60
2018-04-08T12:09:23.480Z,19.60
2018-04-08T12:11:51.055Z,19.50
2018-04-08T12:14:18.620Z,19.60
2018-04-08T12:16:46.175Z,19.70
2018-04-08T12:19:13.841Z,19.90
2018-04-08T12:21:41.449Z,20.00
2018-04-08T12:24:08.953Z,20.00
2018-04-08T12:26:36.522Z,20.00
2018-04-08T12:29:04.102Z,20.00
2018-04-08T12:31:31.852Z,20.00
2018-04-08T12:33:59.388Z,20.10
2018-04-08T12:36:26.947Z,20.10
2018-04-08T12:38:54.482Z,20.10
2018-04-08T12:41:22.222Z,20.10
2018-04-08T12:43:49.807Z,20.10
2018-04-08T12:46:17.375Z,20.20
2018-04-08T12:48:44.941Z,20.20
2018-04-08T12:51:12.475Z,20.10
2018-04-08T12:53:40.099Z,20.20
2018-04-08T12:56:07.645Z,20.10
2018-04-08T12:58:35.216Z,20.10
2018-04-08T13:01:02.756Z,20.20
2018-04-08T13:03:30.343Z,20.10
2018-04-08T13:05:57.877Z,20.20
2018-04-08T13:08:25.536Z,20.20
2018-04-08T13:10:53.309Z,20.20
2018-04-08T13:13:20.897Z,20.30
2018-04-08T13:15:48.710Z,20.40
2018-04-08T13:18:16.644Z,20.40
2018-04-08T13:20:44.368Z,20.50
2018-04-08T13:23:11.904Z,20.60
2018-04-08T13:25:39.539Z,20.60
2018-04-08T13:28:07.115Z,20.50
2018-04-08T13:30:35.090Z,20.50
2018-04-08T13:33:02.655Z,20.60
2018-04-08T13:35:30.239Z,20.60
2018-04-08T13:37:57.818Z,20.50
2018-04-08T13:40:25.408Z,20.50
2018-04-08T13:42:52.962Z,20.50
2018-04-08T13:45:21.322Z,20.70
2018-04-08T13:47:49.619Z,20.70
2018-04-08T13:50:18.437Z,20.70
2018-04-08T13:52:46.007Z,20.70
2018-04-08T13:55:13.637Z,20.80
2018-04-08T13:57:41.214Z,20.80
2018-04-08T14:00:08.792Z,20.80
2018-04-08T14:02:36.419Z,20.80
2018-04-08T14:05:03.998Z,20.80
2018-04-08T14:07:31.572Z,20.80
2018-04-08T14:09:59.145Z,20.80
2018-04-08T14:12:26.706Z,20.90
2018-04-08T14:14:54.249Z,20.90
2018-04-08T14:17:21.814Z,21.00
2018-04-08T14:19:49.461Z,21.10
2018-04-08T14:22:17.033Z,21.10
2018-04-08T14:24:44.613Z,21.00
2018-04-08T14:27:12.189Z,21.00
2018-04-08T14:29:39.713Z,21.10
2018-04-08T14:32:07.364Z,21.10
2018-04-08T14:34:35.316Z,21.10
2018-04-08T14:37:02.853Z,21.10
2018-04-08T14:39:30.434Z,21.10
2018-04-08T14:41:58.016Z,21.10
2018-04-08T14:44:25.609Z,21.10
2018-04-08T14:46:53.152Z,21.20
2018-04-08T14:49:20.671Z,21.10
2018-04-08T14:51:48.319Z,21.10
2018-04-08T14:54:16.630Z,21.10
2018-04-08T14:56:44.188Z,21.10
2018-04-08T14:59:11.768Z,21.10
2018-04-08T15:01:46.661Z,21.20
2018-04-08T15:04:07.048Z,21.20
2018-04-08T15:06:34.622Z,21.20
2018-04-08T15:09:02.188Z,21.30
2018-04-08T15:11:29.752Z,21.30
2018-04-08T15:13:57.318Z,21.30
2018-04-08T15:16:24.966Z,21.30
2018-04-08T15:18:52.587Z,21.30
2018-04-08T15:21:20.229Z,21.30
2018-04-08T15:23:47.877Z,21.30
2018-04-08T15:26:15.551Z,21.20
2018-04-08T15:28:43.201Z,21.30
2018-04-08T15:31:10.788Z,21.30
2018-04-08T15:33:38.323Z,21.30
2018-04-08T15:36:05.941Z,21.30
2018-04-08T15:38:33.483Z,21.30
2018-04-08T15:41:01.047Z,21.30
2018-04-08T15:43:29.370Z,21.20
2018-04-08T15:45:56.929Z,21.20
2018-04-08T15:48:24.486Z,21.20
2018-04-08T15:50:52.047Z,21.30
2018-04-08T15:53:19.568Z,21.30
2018-04-08T15:55:47.952Z,21.20
2018-04-08T15:58:15.563Z,21.20
2018-04-08T16:00:43.161Z,21.20
2018-04-08T16:03:11.491Z,21.10
2018-04-08T16:05:39.052Z,21.10
2018-04-08T16:08:06.650Z,21.10
2018-04-08T16:10:34.271Z,21.00
2018-04-08T16:13:01.841Z,21.00
2018-04-08T16:15:29.380Z,20.90
2018-04-08T16:17:56.943Z,20.90
2018-04-08T16:20:24.504Z,20.90
2018-04-08T16:22:52.114Z,20.90
2018-04-08T16:25:20.445Z,20.90
2018-04-08T16:27:48.020Z,20.80
2018-04-08T16:30:15.561Z,20.80
2018-04-08T16:32:43.134Z,20.70
2018-04-08T16:35:10.732Z,20.70
2018-04-08T16:37:38.372Z,20.60
2018-04-08T16:40:05.952Z,20.60
2018-04-08T16:42:33.580Z,20.60
2018-04-08T16:45:01.111Z,20.60
2018-04-08T16:47:28.684Z,20.60
2018-04-08T16:49:56.200Z,20.50
2018-04-08T16:52:23.761Z,20.50
2018-04-08T16:54:52.080Z,20.40
2018-04-08T16:57:19.649Z,20.40
2018-04-08T16:59:47.164Z,20.40
2018-04-08T17:02:14.716Z,20.30
2018-04-08T17:04:42.574Z,20.30
2018-04-08T17:07:10.918Z,20.20
2018-04-08T17:09:38.432Z,20.20
2018-04-08T17:12:05.964Z,20.20
2018-04-08T17:14:33.639Z,20.20
2018-04-08T17:17:01.206Z,20.20
2018-04-08T17:19:28.732Z,21.50
2018-04-08T17:21:56.324Z,20.20
2018-04-08T17:24:24.654Z,20.30
2018-04-08T17:26:52.212Z,20.30
2018-04-08T17:29:19.773Z,20.20
2018-04-08T17:31:47.291Z,20.30
2018-04-08T17:34:14.860Z,20.30
2018-04-08T17:36:42.475Z,20.30
2018-04-08T17:39:10.140Z,20.30
2018-04-08T17:41:37.745Z,20.30
2018-04-08T17:44:05.444Z,20.20
2018-04-08T17:46:32.963Z,20.20
2018-04-08T17:49:00.487Z,20.10
2018-04-08T17:51:28.073Z,20.00
2018-04-08T17:53:55.683Z,19.90
2018-04-08T17:56:23.252Z,19.90
2018-04-08T17:58:50.788Z,19.80
2018-04-08T18:01:18.378Z,19.70
2018-04-08T18:03:45.951Z,19.70
2018-04-08T18:06:13.632Z,19.60
2018-04-08T18:08:42.108Z,19.60
2018-04-08T18:11:10.469Z,19.60
2018-04-08T18:13:38.030Z,19.60
2018-04-08T18:16:05.596Z,19.60
2018-04-08T18:18:33.937Z,19.40
2018-04-08T18:21:01.562Z,19.50
2018-04-08T18:23:29.088Z,19.40
2018-04-08T18:25:56.660Z,19.40
2018-04-08T18:28:25.029Z,19.30
2018-04-08T18:30:53.346Z,19.30
2018-04-08T18:33:21.020Z,19.30
2018-04-08T18:35:48.577Z,19.20
2018-04-08T18:38:16.181Z,19.20
2018-04-08T18:40:43.736Z,19.10
2018-04-08T18:43:11.313Z,19.10
2018-04-08T18:45:39.752Z,19.00
2018-04-08T18:48:07.374Z,18.90
2018-04-08T18:50:34.923Z,18.90
2018-04-08T18:53:03.243Z,18.80
2018-04-08T18:55:30.827Z,18.80
2018-04-08T18:57:58.757Z,18.80
2018-04-08T19:00:26.302Z,18.70
2018-04-08T19:02:53.876Z,18.70
2018-04-08T19:05:21.476Z,18.70
2018-04-08T19:07:49.054Z,18.70
2018-04-08T19:10:16.640Z,18.60
2018-04-08T19:12:44.330Z,18.60
2018-04-08T19:15:17.532Z,18.50
2018-04-08T19:17:50.675Z,18.50
2018-04-08T19:20:18.285Z,18.50
2018-04-08T19:22:45.857Z,18.30
2018-04-08T19:25:14.171Z,18.30
2018-04-08T19:27:41.724Z,18.30
2018-04-08T19:30:14.916Z,18.30
2018-04-08T19:32:42.509Z,18.20
2018-04-08T19:35:10.152Z,18.20
2018-04-08T19:37:37.726Z,18.10
2018-04-08T19:40:05.295Z,18.00
2018-04-08T19:42:33.050Z,18.00
2018-04-08T19:45:00.602Z,18.00
2018-04-08T19:47:28.192Z,17.90
2018-04-08T19:49:55.760Z,17.90
2018-04-08T19:52:23.370Z,17.80
2018-04-08T19:54:50.943Z,17.80
2018-04-08T19:57:18.504Z,17.80
2018-04-08T19:59:46.080Z,17.70
2018-04-08T20:02:13.627Z,17.70
2018-04-08T20:04:41.168Z,17.70
2018-04-08T20:07:08.724Z,17.70
2018-04-08T20:09:36.356Z,17.70
2018-04-08T20:12:03.917Z,17.60
2018-04-08T20:14:31.519Z,17.60
2018-04-08T20:16:59.844Z,17.50
2018-04-08T20:19:27.406Z,17.50
2018-04-08T20:21:54.955Z,17.50
2018-04-08T20:24:22.611Z,17.40
2018-04-08T20:26:50.187Z,17.40
2018-04-08T20:29:17.732Z,17.40
2018-04-08T20:31:45.310Z,17.40
2018-04-08T20:34:12.864Z,17.40
2018-04-08T20:36:40.411Z,17.40
2018-04-08T20:39:07.990Z,17.30
2018-04-08T20:41:35.526Z,17.30
2018-04-08T20:44:03.109Z,17.30
2018-04-08T20:46:31.585Z,17.20
2018-04-08T20:48:59.310Z,17.30
2018-04-08T20:51:26.838Z,17.20
2018-04-08T20:53:54.452Z,17.10
2018-04-08T20:56:21.988Z,17.10
2018-04-08T20:58:50.337Z,16.90
2018-04-08T21:01:17.930Z,16.90
2018-04-08T21:03:45.489Z,16.80
2018-04-08T21:06:13.052Z,16.90
2018-04-08T21:08:40.610Z,16.90
2018-04-08T21:11:08.304Z,16.80
2018-04-08T21:13:35.883Z,16.70
2018-04-08T21:16:03.524Z,16.60
2018-04-08T21:18:31.085Z,16.60
2018-04-08T21:20:58.622Z,16.60
2018-04-08T21:23:26.179Z,16.50
2018-04-08T21:25:53.738Z,16.60
2018-04-08T21:28:21.324Z,16.60
2018-04-08T21:30:48.908Z,16.70
2018-04-08T21:33:16.463Z,16.70
2018-04-08T21:35:44.032Z,16.60
2018-04-08T21:38:11.641Z,16.60
2018-04-08T21:40:39.200Z,16.50
2018-04-08T21:43:06.782Z,16.50
2018-04-08T21:45:34.342Z,16.40
2018-04-08T21:48:01.993Z,16.40
2018-04-08T21:50:29.548Z,16.40
2018-04-08T21:52:57.140Z,16.30
2018-04-08T21:55:24.971Z,16.30
2018-04-08T21:57:52.565Z,16.30
2018-04-08T22:00:20.117Z,16.30
2018-04-08T22:02:47.674Z,16.30
2018-04-08T22:05:15.251Z,16.40
2018-04-08T22:07:42.764Z,16.40
2018-04-08T22:10:10.421Z,16.30
2018-04-08T22:12:37.964Z,16.30
2018-04-08T22:15:05.547Z,16.30
2018-04-08T22:17:33.090Z,16.30
2018-04-08T22:20:00.715Z,16.30
2018-04-08T22:22:28.273Z,16.30
2018-04-08T22:24:55.821Z,16.30
2018-04-08T22:27:23.452Z,16.20
2018-04-08T22:29:51.042Z,16.20
2018-04-08T22:32:18.587Z,16.10
2018-04-08T22:34:46.146Z,16.10
2018-04-08T22:37:13.722Z,16.10
2018-04-08T22:39:41.299Z,16.10
2018-04-08T22:42:08.820Z,16.00
2018-04-08T22:44:36.416Z,16.00
2018-04-08T22:47:03.944Z,16.00
2018-04-08T22:49:31.521Z,16.00
2018-04-08T22:51:59.083Z,16.00
2018-04-08T22:54:26.644Z,16.10
2018-04-08T22:56:54.168Z,16.10
2018-04-08T22:59:21.776Z,16.10
2018-04-08T23:01:49.676Z,16.10
2018-04-08T23:04:17.396Z,16.20
2018-04-08T23:06:44.958Z,16.20
2018-04-08T23:09:12.516Z,16.10
2018-04-08T23:11:40.051Z,16.10
2018-04-08T23:14:07.584Z,16.00
2018-04-08T23:16:35.155Z,16.00
2018-04-08T23:19:02.820Z,16.00
2018-04-08T23:21:30.384Z,16.00
2018-04-08T23:23:57.956Z,16.00
2018-04-08T23:26:25.569Z,16.00
2018-04-08T23:28:53.129Z,16.00
2018-04-08T23:31:20.724Z,16.00
2018-04-08T23:33:48.296Z,16.00
2018-04-08T23:36:15.859Z,15.90
2018-04-08T23:38:43.385Z,15.80
2018-04-08T23:41:11.705Z,15.80
2018-04-08T23:43:39.254Z,15.80
2018-04-08T23:46:06.813Z,15.70
2018-04-08T23:48:34.372Z,15.70
2018-04-08T23:53:43.851Z,15.60
2018-04-08T23:56:11.400Z,15.50
2018-04-08T23:58:38.934Z,15.60
